Latest Aviation Weather Report (METAR)

METAR VMMC 221400Z 14004KT 4200 BR FEW035 19/17 Q1014 NOSIG=

Decoded METAR in plain language
Contents of Report Code Information
Report Type METAR Aviation Routine Weather Report
Location VMMC Macao, China
Time of the Observation 221400Z 22/01/2018 14:00:00 UTC
Surface Wind Direction and Speed 14004KT mean direction 140 degrees, speed 4 knots
Visibility 4200 4200 metres
Present Weather BR mist
Cloud FEW035 amount 1-2 oktas; base 3500 feet
Air Temperature and Dew-Point Temperature 19/17 air temperature 19°C
dew point temperature 17°C
Pressure (QNH) Q1014 1014 hPa
Trend Forecasts During Next Two Hours NOSIG no significant changes

OTHER INTERNATIONAL AIRPORTS:
Weather Forecast (TAF)   Weather Report (METAR)